Holly, Michigan
Current Conditions -  °F | °C
As of 12:53 AM on Wednesday 26 Nov 2014 (Local Time) from KFNT Reporting Station
Overcast Overcast  
Wind Chill: 31°   Ceiling: 2200
Heat Index: 31°   Visibility: 10mi
Dew Point: 21°   Wind: 3mph
Humidity: 67%   Direction: 240°WSW
Pressure: 30.2"   Gusts: NA
Location:  42.79°N, 83.63°W
Report Text: KFNT 260553Z AUTO 24003KT 10SM OVC022 M01/M06 A3020 RMK AO2 SLP235 T10061061 10000 21006 51003
Loading
Personal Weather Stations






























Interactive Weather Map New forecast layout! Learn more

10-Day Weather Forecast

Advertisements
Track Severe Weather on mobile